Estación Meteorológica Peña el Pijo (Robertgarden) [ 12/10/18 11:30:07 CET ]

Fecha Hora Presion(HPa) Temp (°C) Humedad % Rocio (°C) Viento ( m/s) Direccion Lluvia 1Hora(mm) Lluvia 24H(mm) LLuvia Total(mm)
2018-Oct-16 01:01:58 1003.500 9.8 79 6.3     1.03 1.55 13.98
2018-Oct-16 02:01:51 1003.400 9.8 82 6.8     0.51 2.07 14.50
2018-Oct-16 03:01:40 1003.400 9.8 84 7.2     0.51 2.59 15.02
2018-Oct-16 04:01:45 1002.600 9.6 85 7.2     1.03 3.62 16.05
2018-Oct-16 05:01:44 1002.700 9.6 87 7.5     0.51 4.14 16.57
2018-Oct-16 06:05:14 1002.800 9.5 87 7.4       4.14 16.57
2018-Oct-16 07:01:35 1003.000 9.5 88 7.6       4.14 16.57
2018-Oct-16 08:01:30 1003.600 9.5 89 7.8       4.14 16.57
2018-Oct-16 09:01:45 1004.000 9.1 89 7.4       4.14 16.57
2018-Oct-16 10:01:37 1004.900 9.9 90 8.3       4.14 16.57
2018-Oct-16 11:01:40 1005.500 13.6 88 11.6       4.14 16.57
2018-Oct-16 12:01:36 1005.400 16.4 74 11.8 1.7 N   4.14 16.57
2018-Oct-16 13:01:53 1005.800 16.6 65 10.0       4.14 16.57
2018-Oct-16 14:01:43 1005.800 15.3 67 9.2       4.14 16.57
2018-Oct-16 15:01:46 1005.600 17.5 60 9.6       4.14 16.57
2018-Oct-16 16:01:50 1005.700 18.1 57 9.4       4.14 16.57
2018-Oct-16 17:01:44 1006.100 18.4 53 8.6       4.14 16.57
2018-Oct-16 18:01:35 1006.300 17.8 56 8.8       4.14 16.57
2018-Oct-16 19:01:34 1006.700 14.3 57 5.9       4.14 16.57
2018-Oct-16 20:01:50 1007.200 11.5 68 5.8       4.14 16.57
2018-Oct-16 21:01:40 1008.200 11.8 73 7.1       4.14 16.57
2018-Oct-16 22:01:38 1008.400 11.6 76 7.5       4.14 16.57
2018-Oct-16 23:01:36 1008.800 10.2 78 6.5       3.62 16.57

Temperatura Máxima:18°    Temperatura Mínima:
Presión Máxima:1008.800 Hpa    Presión Mínima:1002.600 Hpa


Volver